Time;durP1;ratioP1;P1;durP2;ratioP2;P2;SDS_P1;SDS_P2;PMS_P1;PMS_P2;Temp;Humidity;BMP_temperature;BMP_pressure;BME280_temperature;BME280_humidity;BME280_pressure;Samples;Min_cycle;Max_cycle;Signal;HPM_P1;HPM_P2
2020/12/12 00:01:56;;;;;;;26.17;11.88;;;26.90;87.30;;;;;;4994301;28;20052;-92
2020/12/12 00:04:24;;;;;;;24.08;10.07;;;26.90;86.60;;;;;;4994813;28;20101;-93
2020/12/12 00:06:51;;;;;;;29.05;10.75;;;26.80;87.90;;;;;;4990814;28;20038;-87
2020/12/12 00:09:18;;;;;;;22.65;10.90;;;26.80;87.70;;;;;;4991174;28;20062;-87
2020/12/12 00:11:46;;;;;;;17.95;9.43;;;26.80;87.00;;;;;;4992565;28;20030;-89
2020/12/12 00:14:13;;;;;;;18.58;7.82;;;26.80;86.80;;;;;;4992840;28;20034;-88
2020/12/12 00:16:43;;;;;;;23.58;8.35;;;26.80;87.70;;;;;;4994544;28;20093;-89
2020/12/12 00:19:11;;;;;;;14.60;7.63;;;26.80;87.80;;;;;;4993058;28;20275;-89
2020/12/12 00:21:59;;;;;;;13.32;7.50;;;26.60;88.10;;;;;;5009167;28;20033;-88
2020/12/12 00:25:21;;;;;;;11.45;5.18;;;26.60;87.90;;;;;;4991892;28;20080;-94
2020/12/12 00:27:48;;;;;;;14.32;5.60;;;26.50;88.80;;;;;;4990104;28;20026;-89
2020/12/12 00:30:24;;;;;;;9.32;4.95;;;26.60;87.70;;;;;;4993646;28;20037;-90
2020/12/12 00:32:50;;;;;;;12.38;5.78;;;26.50;88.20;;;;;;4973909;28;20041;-87
2020/12/12 00:35:20;;;;;;;10.32;6.22;;;26.50;88.60;;;;;;4989441;28;20041;-89
2020/12/12 00:37:46;;;;;;;11.30;5.32;;;26.40;88.20;;;;;;4990353;28;20045;-90
2020/12/12 00:40:13;;;;;;;11.20;5.35;;;26.40;88.40;;;;;;4990450;28;20081;-91
2020/12/12 00:42:42;;;;;;;11.23;5.10;;;26.40;89.00;;;;;;4989667;28;20040;-90
2020/12/12 00:45:08;;;;;;;9.95;5.53;;;26.30;89.20;;;;;;4990865;28;20038;-90
2020/12/12 00:47:35;;;;;;;9.05;5.40;;;26.20;89.00;;;;;;4989645;28;20042;-91
2020/12/12 00:50:06;;;;;;;13.70;6.40;;;26.20;89.10;;;;;;5007203;28;20141;-92
2020/12/12 00:52:35;;;;;;;15.60;5.22;;;26.20;88.80;;;;;;4989755;28;20054;-92
2020/12/12 00:55:02;;;;;;;9.52;4.38;;;26.10;88.90;;;;;;5009323;28;20105;-94
2020/12/12 00:57:29;;;;;;;11.30;4.40;;;26.10;89.70;;;;;;4991036;28;20077;-93
2020/12/12 00:59:56;;;;;;;12.27;5.50;;;26.00;89.10;;;;;;4989304;28;20437;-88
2020/12/12 01:02:22;;;;;;;9.25;6.35;;;26.10;89.30;;;;;;4991561;28;20074;-91
2020/12/12 01:04:49;;;;;;;9.80;4.93;;;26.00;90.10;;;;;;5009502;28;20069;-92
2020/12/12 01:07:19;;;;;;;7.00;4.55;;;26.00;90.00;;;;;;4989424;28;20041;-91
2020/12/12 01:09:48;;;;;;;11.38;4.00;;;25.90;89.20;;;;;;4990335;28;20030;-90
2020/12/12 01:12:17;;;;;;;5.82;3.80;;;26.00;89.50;;;;;;4988963;28;20344;-89
2020/12/12 01:14:46;;;;;;;5.65;3.78;;;25.90;89.20;;;;;;5006117;28;20038;-90
2020/12/12 01:17:13;;;;;;;9.25;4.10;;;25.80;89.80;;;;;;5006389;28;20030;-92
2020/12/12 01:19:40;;;;;;;6.47;3.90;;;25.80;90.20;;;;;;4973277;28;20053;-91
2020/12/12 01:22:06;;;;;;;57.45;5.45;;;25.80;90.00;;;;;;4989621;28;20035;-90
2020/12/12 01:24:33;;;;;;;11.43;4.60;;;25.80;90.20;;;;;;4989692;28;20126;-92
2020/12/12 01:27:04;;;;;;;7.57;4.53;;;25.90;89.80;;;;;;4990643;28;20109;-95
2020/12/12 01:30:00;;;;;;;8.90;5.07;;;25.90;89.60;;;;;;4955716;29;20057;-95
2020/12/12 01:32:54;;;;;;;6.07;4.35;;;25.90;90.20;;;;;;4947940;29;20039;-95
2020/12/12 01:35:22;;;;;;;8.50;4.35;;;25.80;90.20;;;;;;4931720;29;20027;-94
2020/12/12 01:40:38;;;;;;;11.05;4.15;;;25.80;89.80;;;;;;5434884;23;20046;-92
2020/12/12 01:43:27;;;;;;;7.55;4.00;;;25.80;89.60;;;;;;5088648;23;20045;-94
2020/12/12 01:45:57;;;;;;;7.70;4.20;;;25.90;90.00;;;;;;5013190;28;20037;-93
2020/12/12 01:48:30;;;;;;;7.78;4.57;;;25.90;90.00;;;;;;5047993;28;20048;-94
2020/12/12 01:51:12;;;;;;;5.40;4.38;;;25.90;89.60;;;;;;5046632;28;20056;-93
2020/12/12 01:53:39;;;;;;;6.15;4.20;;;25.80;90.10;;;;;;5027243;28;20111;-95
2020/12/12 01:56:07;;;;;;;5.32;4.00;;;25.80;90.00;;;;;;5029874;28;20314;-95
2020/12/12 01:58:33;;;;;;;8.73;3.65;;;25.80;90.10;;;;;;5029369;28;20033;-95
2020/12/12 02:01:49;;;;;;;5.22;3.95;;;25.80;90.20;;;;;;5033149;28;20104;-94
2020/12/12 02:08:48;;;;;;;7.47;5.10;;;25.80;90.30;;;;;;5016831;28;20117;-94
2020/12/12 02:15:00;;;;;;;9.27;5.57;;;25.80;90.30;;;;;;5049430;23;20050;-93
2020/12/12 02:18:11;;;;;;;9.82;6.32;;;25.90;90.10;;;;;;5015964;28;20046;-95
2020/12/12 02:20:40;;;;;;;7.80;5.57;;;25.90;90.40;;;;;;4962206;28;20055;-94
2020/12/12 02:23:09;;;;;;;9.13;5.68;;;26.00;90.20;;;;;;4958129;28;20031;-93
2020/12/12 02:25:37;;;;;;;7.30;5.28;;;26.00;89.80;;;;;;4985895;28;20109;-94
2020/12/12 02:28:12;;;;;;;4.90;4.30;;;26.00;88.70;;;;;;4973439;28;20034;-94
2020/12/12 02:30:44;;;;;;;4.15;3.20;;;26.10;89.30;;;;;;4978343;28;20058;-93
2020/12/12 02:40:10;;;;;;;5.63;3.80;;;26.20;89.40;;;;;;4992983;28;20021;-94
2020/12/12 02:43:01;;;;;;;8.27;3.72;;;26.10;89.10;;;;;;4991198;28;20039;-93
2020/12/12 02:45:30;;;;;;;10.50;4.65;;;26.00;89.30;;;;;;4950956;29;20028;-96
2020/12/12 02:48:48;;;;;;;7.70;3.80;;;26.10;88.90;;;;;;4952959;29;20034;-94
2020/12/12 03:09:38;;;;;;;12.80;6.50;;;25.90;90.10;;;;;;5653311;22;20050;-95
2020/12/12 03:12:20;;;;;;;10.93;5.35;;;25.90;90.60;;;;;;5276486;23;20054;-93
2020/12/12 03:14:53;;;;;;;10.88;6.45;;;25.80;90.50;;;;;;4995462;28;20049;-94
2020/12/12 03:17:20;;;;;;;20.27;9.50;;;25.80;91.10;;;;;;4998704;28;20105;-95
2020/12/12 03:19:46;;;;;;;19.33;10.00;;;25.70;91.10;;;;;;5013216;28;20025;-93
2020/12/12 03:22:15;;;;;;;19.70;11.02;;;25.70;90.70;;;;;;5012554;28;20030;-93
2020/12/12 03:24:48;;;;;;;29.08;14.07;;;25.60;91.30;;;;;;5017429;28;20081;-92
2020/12/12 03:27:15;;;;;;;30.15;13.32;;;25.60;91.00;;;;;;5019633;28;20034;-94
2020/12/12 03:29:41;;;;;;;24.00;12.27;;;25.60;91.00;;;;;;5019400;28;20125;-94
2020/12/12 03:32:10;;;;;;;16.10;10.07;;;25.60;91.30;;;;;;5018210;28;20056;-94
2020/12/12 03:34:39;;;;;;;18.15;9.55;;;25.70;91.20;;;;;;5020913;28;20034;-92
2020/12/12 03:37:15;;;;;;;19.23;8.95;;;25.60;91.20;;;;;;5001542;28;20032;-94
2020/12/12 03:39:49;;;;;;;18.52;7.70;;;25.60;91.20;;;;;;5017735;28;20112;-94
2020/12/12 03:42:16;;;;;;;18.90;7.47;;;25.60;90.70;;;;;;5016037;28;20026;-94
2020/12/12 03:44:42;;;;;;;17.67;8.10;;;25.60;90.30;;;;;;5014748;28;20034;-94
2020/12/12 03:47:09;;;;;;;13.20;8.35;;;25.60;90.70;;;;;;5016356;28;20272;-93
2020/12/12 03:49:36;;;;;;;10.40;7.28;;;25.60;91.30;;;;;;5016435;28;20034;-93
2020/12/12 03:52:02;;;;;;;16.27;7.55;;;25.40;91.90;;;;;;5015794;28;20030;-93
2020/12/12 03:54:30;;;;;;;24.55;14.90;;;25.30;91.80;;;;;;5015994;28;20032;-93
2020/12/12 03:56:59;;;;;;;23.83;15.43;;;25.40;91.40;;;;;;4999008;28;20030;-94
2020/12/12 03:59:25;;;;;;;22.13;12.52;;;25.40;91.50;;;;;;5013978;28;20138;-94
2020/12/12 04:01:53;;;;;;;16.88;11.57;;;25.40;92.00;;;;;;5013874;28;20097;-93
2020/12/12 04:04:22;;;;;;;24.00;11.18;;;25.30;92.60;;;;;;5015045;28;20376;-94
2020/12/12 04:06:49;;;;;;;17.92;9.95;;;25.10;92.50;;;;;;5014572;28;20022;-93
2020/12/12 04:09:16;;;;;;;18.27;9.90;;;25.10;92.40;;;;;;5014922;28;20026;-94
2020/12/12 04:11:43;;;;;;;15.27;9.27;;;25.20;92.40;;;;;;5015764;28;20030;-94
2020/12/12 04:14:09;;;;;;;12.93;7.65;;;25.20;92.40;;;;;;4995564;28;20034;-93
2020/12/12 04:16:42;;;;;;;12.90;6.05;;;25.20;92.10;;;;;;4996248;28;20045;-95
2020/12/12 04:19:09;;;;;;;8.73;4.63;;;25.20;92.30;;;;;;4995343;28;20031;-94
2020/12/12 04:21:36;;;;;;;5.88;4.25;;;25.10;92.50;;;;;;4995541;28;20030;-93
2020/12/12 04:24:02;;;;;;;6.47;3.65;;;25.10;92.10;;;;;;4995326;28;20061;-93
2020/12/12 04:26:29;;;;;;;7.72;4.25;;;25.10;92.00;;;;;;4995565;28;20030;-92
2020/12/12 04:28:56;;;;;;;5.97;3.90;;;25.10;91.80;;;;;;4995282;28;20034;-93
2020/12/12 04:31:22;;;;;;;6.28;3.85;;;25.10;92.10;;;;;;4992308;28;20030;-95
2020/12/12 04:33:49;;;;;;;6.53;3.92;;;25.00;91.90;;;;;;4992077;28;20034;-94
2020/12/12 04:36:16;;;;;;;5.03;3.63;;;25.00;91.80;;;;;;4991618;28;20153;-94
2020/12/12 04:38:42;;;;;;;8.00;4.10;;;25.00;91.70;;;;;;4991673;28;20034;-94
2020/12/12 04:41:13;;;;;;;6.88;4.50;;;25.00;92.20;;;;;;4992481;28;20034;-95
2020/12/12 04:43:43;;;;;;;6.38;3.78;;;25.00;92.20;;;;;;4993673;28;20203;-94
2020/12/12 04:46:12;;;;;;;6.00;3.92;;;25.00;92.10;;;;;;4993644;28;20121;-94
2020/12/12 04:48:41;;;;;;;6.28;3.22;;;24.90;92.40;;;;;;4992955;28;20034;-94
2020/12/12 04:51:08;;;;;;;3.47;2.97;;;24.90;92.20;;;;;;4993985;28;20099;-94
2020/12/12 04:53:35;;;;;;;5.78;3.65;;;24.90;91.80;;;;;;4996038;28;20062;-93
2020/12/12 04:56:12;;;;;;;4.72;3.67;;;24.90;92.30;;;;;;4995854;28;20106;-94
2020/12/12 04:58:40;;;;;;;4.80;3.40;;;24.90;92.10;;;;;;4994938;28;20053;-93
2020/12/12 05:01:08;;;;;;;9.75;4.03;;;24.90;91.90;;;;;;4993983;28;20017;-93
2020/12/12 05:03:38;;;;;;;9.00;4.60;;;24.80;92.30;;;;;;5012049;28;20022;-94
2020/12/12 05:06:07;;;;;;;8.10;5.47;;;24.80;91.80;;;;;;4994458;28;20318;-95
2020/12/12 05:08:37;;;;;;;;;;;24.80;92.00;;;;;;5010754;28;20065;-95
2020/12/12 05:11:04;;;;;;;13.88;9.27;;;24.80;92.00;;;;;;4991054;28;19969;-95
2020/12/12 05:13:31;;;;;;;15.48;10.48;;;24.80;92.30;;;;;;4991381;28;20073;-95
2020/12/12 05:16:17;;;;;;;6.35;4.95;;;24.70;92.70;;;;;;4990606;28;20122;-96
2020/12/12 05:18:44;;;;;;;9.05;4.50;;;24.60;92.40;;;;;;4990362;28;20030;-95
2020/12/12 05:21:11;;;;;;;7.70;4.50;;;24.60;92.70;;;;;;4992348;28;20101;-94
2020/12/12 05:23:40;;;;;;;8.52;5.50;;;24.60;92.70;;;;;;4995421;28;20034;-94
2020/12/12 05:32:46;;;;;;;4.57;3.90;;;24.60;92.70;;;;;;5210567;23;20279;-96
2020/12/12 05:35:13;;;;;;;8.48;4.30;;;24.50;92.60;;;;;;4990964;28;20200;-94
2020/12/12 05:37:41;;;;;;;5.47;3.80;;;24.50;93.20;;;;;;4992411;28;20266;-94
2020/12/12 05:40:09;;;;;;;6.88;3.90;;;24.40;93.10;;;;;;4992422;28;20026;-94
2020/12/12 05:42:36;;;;;;;5.97;3.78;;;24.40;92.90;;;;;;4993350;28;20034;-94
2020/12/12 05:45:06;;;;;;;6.55;3.85;;;24.40;92.90;;;;;;4991973;28;20103;-93
2020/12/12 05:47:34;;;;;;;6.90;4.30;;;24.50;92.50;;;;;;4992475;28;20041;-93
2020/12/12 05:50:01;;;;;;;6.40;3.88;;;24.50;92.70;;;;;;4993355;28;20041;-93
2020/12/12 05:52:29;;;;;;;9.07;3.97;;;24.50;93.40;;;;;;4993204;28;20042;-94
2020/12/12 05:54:58;;;;;;;8.00;3.90;;;24.40;93.40;;;;;;4993636;28;20030;-95
2020/12/12 05:57:28;;;;;;;7.97;3.92;;;24.40;93.40;;;;;;4994519;28;20030;-94
2020/12/12 06:00:09;;;;;;;5.63;3.75;;;24.30;93.40;;;;;;4991986;28;20081;-94
2020/12/12 06:02:41;;;;;;;5.07;3.65;;;24.30;93.50;;;;;;5011112;28;20034;-95
2020/12/12 06:05:48;;;;;;;6.55;3.58;;;24.30;93.50;;;;;;4993951;28;20057;-93
2020/12/12 06:08:32;;;;;;;9.65;3.58;;;24.40;93.40;;;;;;4965397;28;20124;-92
2020/12/12 06:11:04;;;;;;;6.55;3.58;;;24.40;93.70;;;;;;4992854;28;20226;-94
2020/12/12 06:13:36;;;;;;;4.22;3.28;;;24.40;93.40;;;;;;4992795;28;20057;-94
2020/12/12 06:32:36;;;;;;;5.28;3.50;;;24.50;93.50;;;;;;5010779;28;20187;-93
2020/12/12 06:35:14;;;;;;;4.20;2.90;;;24.50;93.30;;;;;;5138023;23;20381;-93
2020/12/12 06:37:43;;;;;;;6.05;3.53;;;24.50;93.40;;;;;;5030497;28;20324;-95
2020/12/12 06:40:49;;;;;;;6.55;3.45;;;24.60;93.20;;;;;;5014259;28;20017;-93
2020/12/12 06:43:35;;;;;;;5.53;3.90;;;24.60;93.10;;;;;;5011230;28;20062;-95
2020/12/12 06:46:03;;;;;;;6.75;3.30;;;24.60;93.00;;;;;;4991432;28;20030;-95
2020/12/12 06:49:29;;;;;;;5.55;3.40;;;24.60;93.00;;;;;;4997144;28;20030;-94
2020/12/12 06:51:57;;;;;;;6.03;3.33;;;24.70;93.10;;;;;;5097926;23;20054;-94
2020/12/12 06:54:26;;;;;;;4.20;3.10;;;24.70;92.80;;;;;;4990403;28;20111;-95
2020/12/12 06:56:53;;;;;;;4.90;3.00;;;24.70;92.80;;;;;;4991295;28;20053;-95
2020/12/12 06:59:24;;;;;;;6.40;2.95;;;24.60;92.90;;;;;;4992755;28;20033;-93
2020/12/12 07:02:00;;;;;;;3.65;3.00;;;24.60;92.50;;;;;;4997556;28;20226;-95
2020/12/12 07:04:37;;;;;;;4.25;3.05;;;24.60;92.90;;;;;;4995223;28;20034;-95
2020/12/12 07:07:10;;;;;;;5.47;3.13;;;24.60;92.70;;;;;;4995107;28;20069;-94
2020/12/12 07:09:44;;;;;;;4.25;3.03;;;24.50;92.80;;;;;;4995498;28;20034;-95
2020/12/12 07:12:21;;;;;;;4.45;3.05;;;24.50;92.80;;;;;;5014014;28;20042;-95
2020/12/12 07:14:48;;;;;;;;;;;24.50;92.70;;;;;;4995465;28;20218;-94
2020/12/12 07:17:52;;;;;;;4.75;3.40;;;24.40;93.00;;;;;;5452585;22;21372;-95
2020/12/12 07:20:19;;;;;;;5.45;3.33;;;24.40;93.20;;;;;;4974526;28;20045;-94
2020/12/12 07:22:48;;;;;;;4.20;3.00;;;24.40;93.40;;;;;;4976515;28;20354;-95
2020/12/12 07:25:15;;;;;;;5.13;3.15;;;24.30;93.00;;;;;;4976002;28;20045;-94
2020/12/12 07:27:41;;;;;;;8.13;3.20;;;24.30;92.70;;;;;;4975668;28;20294;-92
2020/12/12 07:30:08;;;;;;;4.68;3.30;;;24.30;92.90;;;;;;4975670;28;20030;-93
2020/12/12 07:32:36;;;;;;;5.82;3.42;;;24.30;92.70;;;;;;4976731;28;20057;-93
2020/12/12 07:35:03;;;;;;;8.73;3.35;;;24.30;92.60;;;;;;5121829;23;20049;-94
2020/12/12 07:37:32;;;;;;;4.22;2.97;;;24.30;92.70;;;;;;4977298;28;20034;-94
2020/12/12 07:39:58;;;;;;;4.20;3.00;;;24.30;92.90;;;;;;4977616;28;20062;-93
2020/12/12 07:42:35;;;;;;;4.97;2.95;;;24.20;92.70;;;;;;4977245;28;20276;-94
2020/12/12 07:45:17;;;;;;;5.43;3.88;;;24.20;92.80;;;;;;4974759;28;20062;-95
2020/12/12 07:47:44;;;;;;;4.72;3.30;;;24.20;93.10;;;;;;4975393;28;20030;-95
2020/12/12 07:50:12;;;;;;;11.27;4.13;;;24.20;92.70;;;;;;4975517;28;20035;-95
2020/12/12 07:52:41;;;;;;;4.05;3.33;;;24.20;92.60;;;;;;4974915;28;20057;-94
2020/12/12 07:55:10;;;;;;;4.50;3.70;;;24.10;92.70;;;;;;4974692;28;20212;-93
2020/12/12 07:57:44;;;;;;;5.70;3.17;;;24.10;93.10;;;;;;4974966;28;20027;-94
2020/12/12 08:00:12;;;;;;;3.10;2.72;;;24.10;92.80;;;;;;4974659;28;20058;-94
2020/12/12 08:02:39;;;;;;;5.15;3.53;;;24.10;92.90;;;;;;4975026;28;20026;-94
2020/12/12 08:05:19;;;;;;;4.72;3.47;;;24.10;92.70;;;;;;4975209;28;20031;-95
2020/12/12 08:07:48;;;;;;;5.00;3.38;;;24.00;92.70;;;;;;4974828;28;20111;-94
2020/12/12 08:10:15;;;;;;;3.95;3.20;;;24.10;92.80;;;;;;4974054;28;20035;-94
2020/12/12 08:12:46;;;;;;;4.10;3.13;;;24.00;92.70;;;;;;4975239;28;20034;-93
2020/12/12 08:17:41;;;;;;;4.18;3.28;;;24.00;92.50;;;;;;4992618;28;20094;-94
2020/12/12 08:20:14;;;;;;;3.78;3.30;;;24.00;92.80;;;;;;4974932;28;20031;-94
2020/12/12 08:22:41;;;;;;;4.47;3.17;;;23.90;92.50;;;;;;4975453;28;20323;-95
2020/12/12 08:25:09;;;;;;;4.53;3.10;;;24.00;92.90;;;;;;4977680;28;20039;-95
2020/12/12 08:27:36;;;;;;;3.83;3.20;;;23.90;93.00;;;;;;4976234;28;20377;-95
2020/12/12 08:30:06;;;;;;;5.75;3.35;;;23.90;92.80;;;;;;4975737;28;20035;-95
2020/12/12 08:32:41;;;;;;;5.68;3.67;;;23.90;93.00;;;;;;4974459;28;20041;-94
2020/12/12 08:35:09;;;;;;;3.83;3.15;;;23.90;93.00;;;;;;4980666;28;20061;-94
2020/12/12 08:37:35;;;;;;;3.60;3.25;;;23.90;93.20;;;;;;4994426;28;20029;-94
2020/12/12 08:40:10;;;;;;;3.88;3.10;;;23.90;93.00;;;;;;4995048;28;20038;-94
2020/12/12 08:42:37;;;;;;;3.60;3.03;;;23.80;93.30;;;;;;4998385;28;20034;-94
2020/12/12 08:45:30;;;;;;;4.05;3.30;;;23.80;93.20;;;;;;4994986;28;20046;-94
2020/12/12 08:48:12;;;;;;;4.10;3.05;;;23.80;93.20;;;;;;4990753;28;20145;-94
2020/12/12 08:50:49;;;;;;;4.95;3.22;;;23.80;93.10;;;;;;4993266;28;20046;-92
2020/12/12 08:53:23;;;;;;;4.10;3.00;;;23.80;93.50;;;;;;4993420;28;20034;-95
2020/12/12 08:56:06;;;;;;;6.78;3.05;;;23.80;93.00;;;;;;4992656;28;20037;-95
2020/12/12 08:58:36;;;;;;;5.45;3.28;;;23.80;93.50;;;;;;4992197;28;20042;-94
2020/12/12 09:01:23;;;;;;;3.88;3.05;;;23.80;92.90;;;;;;4991541;28;20022;-94
2020/12/12 09:04:03;;;;;;;5.60;3.03;;;23.70;93.70;;;;;;4990831;28;20038;-94
2020/12/12 09:06:35;;;;;;;5.57;3.15;;;23.70;93.70;;;;;;4990884;28;20030;-94
2020/12/12 09:09:08;;;;;;;6.50;3.28;;;23.70;93.20;;;;;;4990496;28;20085;-94
2020/12/12 09:11:35;;;;;;;3.80;3.40;;;23.70;93.30;;;;;;4990536;28;20053;-95
2020/12/12 09:14:04;;;;;;;3.45;3.13;;;23.70;93.50;;;;;;4990436;28;20045;-95
2020/12/12 09:16:31;;;;;;;5.97;3.60;;;23.80;93.40;;;;;;4994111;28;20040;-93
2020/12/12 09:19:02;;;;;;;4.70;4.05;;;23.80;93.10;;;;;;4978107;28;20030;-93
2020/12/12 09:21:34;;;;;;;4.75;3.20;;;24.00;93.10;;;;;;4990484;28;20033;-95
2020/12/12 09:24:01;;;;;;;6.40;2.97;;;24.00;93.50;;;;;;4992560;28;20034;-96
2020/12/12 09:27:12;;;;;;;4.82;2.70;;;24.00;93.20;;;;;;5036864;22;20118;-95
2020/12/12 09:29:39;;;;;;;4.10;2.92;;;24.10;92.80;;;;;;5381848;23;20052;-93
2020/12/12 09:32:06;;;;;;;5.20;2.90;;;24.10;92.60;;;;;;4993995;28;20034;-94
2020/12/12 09:35:12;;;;;;;3.60;2.72;;;24.20;92.90;;;;;;4993294;28;20042;-94
2020/12/12 09:42:50;;;;;;;5.30;3.20;;;24.30;92.70;;;;;;4998030;28;20066;-96
2020/12/12 09:45:17;;;;;;;4.60;3.10;;;24.30;93.20;;;;;;4970736;28;20073;-94
2020/12/12 09:47:43;;;;;;;5.47;2.90;;;24.30;92.90;;;;;;4970454;28;20038;-95
2020/12/12 09:50:10;;;;;;;5.88;3.05;;;24.30;92.90;;;;;;4970534;28;20027;-96
2020/12/12 09:52:36;;;;;;;5.45;3.05;;;24.30;92.90;;;;;;4970460;28;20313;-94
2020/12/12 09:55:03;;;;;;;4.55;2.92;;;24.30;92.80;;;;;;4970478;28;20038;-94
2020/12/12 09:57:30;;;;;;;3.60;3.00;;;24.30;92.70;;;;;;4970475;28;20030;-94
2020/12/12 09:59:56;;;;;;;3.78;3.10;;;24.30;92.90;;;;;;4970490;28;20065;-94
2020/12/12 10:02:23;;;;;;;3.28;2.72;;;24.30;92.90;;;;;;4970705;28;20035;-94
2020/12/12 10:04:50;;;;;;;3.72;2.75;;;24.30;92.90;;;;;;4970282;28;20042;-94
2020/12/12 10:07:21;;;;;;;5.70;2.60;;;24.20;92.90;;;;;;4970149;28;20077;-94
2020/12/12 10:09:48;;;;;;;6.57;2.97;;;24.20;92.80;;;;;;4970369;28;20045;-94
2020/12/12 10:12:14;;;;;;;4.03;2.55;;;24.20;93.00;;;;;;4970467;28;20031;-94
2020/12/12 10:14:41;;;;;;;9.75;2.85;;;24.20;92.90;;;;;;4969819;28;20082;-94
2020/12/12 10:17:08;;;;;;;3.38;2.90;;;24.10;93.10;;;;;;4970111;28;20077;-94
2020/12/12 10:19:34;;;;;;;3.17;2.65;;;24.10;92.90;;;;;;4970144;28;20082;-94
2020/12/12 10:22:01;;;;;;;3.65;2.85;;;24.10;92.90;;;;;;4970204;28;20027;-95
2020/12/12 10:24:28;;;;;;;4.50;3.17;;;24.10;93.10;;;;;;4970303;28;20038;-94
2020/12/12 10:26:54;;;;;;;4.32;2.80;;;24.10;93.00;;;;;;4971836;28;20026;-93
2020/12/12 10:29:21;;;;;;;4.18;2.80;;;24.10;93.30;;;;;;4969609;28;20038;-94
2020/12/12 10:31:47;;;;;;;4.10;2.88;;;24.00;93.20;;;;;;4969643;28;20030;-95
2020/12/12 10:34:14;;;;;;;7.38;3.83;;;24.00;93.20;;;;;;4969601;28;20037;-95
2020/12/12 10:36:41;;;;;;;5.40;3.40;;;24.00;93.20;;;;;;4969574;28;20031;-95
2020/12/12 10:39:09;;;;;;;5.03;2.88;;;24.00;93.10;;;;;;4969721;28;20030;-96
2020/12/12 10:41:36;;;;;;;5.00;2.72;;;24.00;93.00;;;;;;4969594;28;20026;-95
2020/12/12 10:44:02;;;;;;;5.82;3.10;;;23.90;93.00;;;;;;5004294;28;20049;-95
2020/12/12 10:46:30;;;;;;;6.20;4.15;;;24.00;93.00;;;;;;5006286;28;20038;-94
2020/12/12 10:48:57;;;;;;;7.95;4.65;;;23.90;93.00;;;;;;5005413;28;20030;-95
2020/12/12 10:51:24;;;;;;;9.88;4.03;;;23.90;92.80;;;;;;5007417;28;20042;-95
2020/12/12 10:53:56;;;;;;;5.05;3.10;;;23.80;92.90;;;;;;5006320;28;20030;-95
2020/12/12 10:57:02;;;;;;;6.90;2.95;;;23.90;92.80;;;;;;5007926;28;20039;-95
2020/12/12 11:10:49;;;;;;;4.70;3.13;;;23.90;92.80;;;;;;5007628;26;20478;-94
2020/12/12 11:13:17;;;;;;;4.05;2.70;;;24.00;93.10;;;;;;4989970;28;20046;-93
2020/12/12 11:15:44;;;;;;;4.13;2.35;;;24.10;92.70;;;;;;4990140;28;20046;-92
2020/12/12 11:18:11;;;;;;;3.33;2.50;;;24.20;92.70;;;;;;4990903;28;20030;-92
2020/12/12 11:20:39;;;;;;;3.85;2.28;;;24.20;92.00;;;;;;5107031;23;20058;-91
2020/12/12 11:23:06;;;;;;;7.38;2.40;;;24.20;91.90;;;;;;4969820;28;20062;-94
2020/12/12 11:25:36;;;;;;;4.53;2.42;;;24.30;91.90;;;;;;4954084;28;20030;-94
2020/12/12 11:28:04;;;;;;;5.03;2.22;;;24.30;91.90;;;;;;4970853;28;20394;-94
2020/12/12 11:30:34;;;;;;;4.20;2.10;;;24.40;91.20;;;;;;4937830;28;20110;-91
2020/12/12 11:33:07;;;;;;;2.50;2.22;;;24.40;91.30;;;;;;4969002;28;20038;-93
2020/12/12 11:35:47;;;;;;;5.20;2.35;;;24.50;91.20;;;;;;4969120;28;20054;-92
2020/12/12 11:38:35;;;;;;;4.10;2.20;;;24.50;90.60;;;;;;4970250;28;20037;-93
2020/12/12 11:49:44;;;;;;;6.63;1.75;;;24.90;88.30;;;;;;5010506;23;20065;-94
2020/12/12 11:52:10;;;;;;;3.92;2.40;;;25.00;88.50;;;;;;4991589;28;20038;-94
2020/12/12 11:54:37;;;;;;;2.80;2.38;;;25.10;88.20;;;;;;4992271;28;20050;-94
2020/12/12 11:57:25;;;;;;;3.42;2.00;;;25.20;86.70;;;;;;4992760;28;20029;-91
2020/12/12 12:00:07;;;;;;;5.53;2.17;;;25.30;87.60;;;;;;5009207;28;20030;-94
2020/12/12 12:02:34;;;;;;;3.53;1.80;;;25.40;85.40;;;;;;4991753;28;20314;-93
2020/12/12 12:05:00;;;;;;;4.43;2.35;;;25.40;84.00;;;;;;4992236;28;20038;-95
2020/12/12 12:07:27;;;;;;;8.63;1.73;;;25.50;85.70;;;;;;4991331;28;20062;-95
2020/12/12 12:10:06;;;;;;;7.72;2.85;;;25.60;82.80;;;;;;4991754;28;20034;-95
2020/12/12 12:12:36;;;;;;;7.65;2.90;;;25.70;83.70;;;;;;4991830;28;20178;-94
2020/12/12 12:15:03;;;;;;;11.40;3.00;;;25.70;83.50;;;;;;4991755;28;20038;-94
2020/12/12 12:17:29;;;;;;;9.90;2.30;;;25.80;83.60;;;;;;4991316;28;20030;-93
2020/12/12 12:19:56;;;;;;;9.52;3.00;;;25.90;82.70;;;;;;4991922;28;20027;-93
2020/12/12 12:22:23;;;;;;;14.70;3.75;;;26.00;83.70;;;;;;4991458;28;20042;-94
2020/12/12 12:25:06;;;;;;;6.18;3.28;;;26.10;83.00;;;;;;4991147;28;20065;-94
2020/12/12 12:27:41;;;;;;;10.13;2.30;;;26.30;83.90;;;;;;4991031;28;20037;-94
2020/12/12 12:30:07;;;;;;;10.93;2.33;;;26.30;82.70;;;;;;4991233;28;20050;-93
2020/12/12 12:32:34;;;;;;;7.50;2.28;;;26.40;82.90;;;;;;4991490;28;20026;-94
2020/12/12 12:35:01;;;;;;;6.53;2.33;;;26.40;82.00;;;;;;4991244;28;20034;-94
2020/12/12 12:37:30;;;;;;;7.53;2.20;;;26.40;81.40;;;;;;4983298;28;20077;-93
2020/12/12 12:39:56;;;;;;;7.05;2.28;;;26.60;80.50;;;;;;4992621;28;20034;-93
2020/12/12 12:42:23;;;;;;;77.35;36.38;;;27.00;80.40;;;;;;4991119;28;20034;-94
2020/12/12 12:44:50;;;;;;;22.33;10.48;;;27.20;79.20;;;;;;4991056;28;20030;-93
2020/12/12 12:47:18;;;;;;;14.27;4.88;;;27.30;78.40;;;;;;4991279;28;20030;-95
2020/12/12 12:49:45;;;;;;;13.38;6.93;;;27.20;78.40;;;;;;4990984;28;20042;-94
2020/12/12 12:52:14;;;;;;;4.13;2.38;;;27.20;78.40;;;;;;4991344;28;20050;-94
2020/12/12 12:54:41;;;;;;;29.98;13.18;;;27.20;77.50;;;;;;4990910;28;20026;-93
2020/12/12 12:57:07;;;;;;;18.27;7.38;;;27.30;79.20;;;;;;4991371;28;20030;-95
2020/12/12 12:59:37;;;;;;;10.88;3.60;;;27.50;77.00;;;;;;4992416;28;20022;-95
2020/12/12 13:02:04;;;;;;;25.55;11.18;;;27.50;76.10;;;;;;4990769;28;20034;-94
2020/12/12 13:04:30;;;;;;;13.60;5.40;;;27.50;76.30;;;;;;4991443;28;20039;-92
2020/12/12 13:06:57;;;;;;;7.50;4.55;;;27.50;76.90;;;;;;4990478;28;20334;-94
2020/12/12 13:09:24;;;;;;;5.53;2.90;;;27.40;75.90;;;;;;4990633;28;20078;-94
2020/12/12 13:11:50;;;;;;;8.80;3.35;;;27.60;74.00;;;;;;4991649;28;20035;-93
2020/12/12 13:14:17;;;;;;;4.43;2.30;;;27.70;75.60;;;;;;4992417;28;20034;-94
2020/12/12 13:19:50;;;;;;;19.00;11.65;;;28.00;73.10;;;;;;5413614;23;19925;-91
2020/12/12 13:34:20;;;;;;;4.65;1.77;;;29.20;68.90;;;;;;5044431;23;20050;-91
2020/12/12 13:40:09;;;;;;;7.70;1.40;;;29.80;68.50;;;;;;5302585;22;25105;-91
2020/12/12 13:42:42;;;;;;;4.25;1.60;;;30.10;69.00;;;;;;5015236;28;20312;-90
2020/12/12 13:45:33;;;;;;;9.52;1.27;;;30.70;64.80;;;;;;5044673;23;20092;-90
2020/12/12 13:48:03;;;;;;;2.47;1.17;;;30.60;65.60;;;;;;5364466;23;20049;-93
2020/12/12 13:50:35;;;;;;;4.40;2.95;;;30.60;62.60;;;;;;5015336;28;20047;-92
2020/12/12 13:53:27;;;;;;;5.18;2.10;;;30.80;64.00;;;;;;5033853;28;20097;-88
2020/12/12 13:59:21;;;;;;;2.70;2.30;;;30.80;62.10;;;;;;1228959;23;20301;-91
2020/12/12 14:01:53;;;;;;;1.73;1.08;;;30.80;64.20;;;;;;5010252;28;20104;-91
2020/12/12 14:04:32;;;;;;;4.25;1.40;;;30.70;62.70;;;;;;5011507;28;20057;-92
2020/12/12 14:07:44;;;;;;;2.78;1.55;;;31.20;65.60;;;;;;5028702;28;20026;-93
2020/12/12 14:10:29;;;;;;;6.10;2.00;;;31.80;66.00;;;;;;5016650;28;20229;-91
2020/12/12 14:24:06;;;;;;;3.28;1.50;;;30.50;71.50;;;;;;5025633;28;20080;-91
2020/12/12 14:29:17;;;;;;;3.78;1.60;;;30.80;69.90;;;;;;5025123;28;20033;-92
2020/12/12 14:31:46;;;;;;;5.80;2.25;;;31.30;70.30;;;;;;5006940;28;20037;-93
2020/12/12 14:34:13;;;;;;;4.82;2.08;;;31.30;68.80;;;;;;5028859;28;20065;-92
2020/12/12 14:36:39;;;;;;;6.35;2.78;;;31.20;68.90;;;;;;5006924;28;20026;-92
2020/12/12 14:39:06;;;;;;;10.82;2.47;;;31.20;70.10;;;;;;5007375;28;20061;-92
2020/12/12 14:41:34;;;;;;;2.88;1.67;;;31.30;68.60;;;;;;5004393;28;20029;-93
2020/12/12 14:44:00;;;;;;;2.13;1.10;;;31.60;68.90;;;;;;5007131;28;20030;-92
2020/12/12 14:46:27;;;;;;;4.82;1.70;;;31.40;66.50;;;;;;5006819;28;20034;-92
2020/12/12 14:49:00;;;;;;;4.28;2.03;;;31.60;66.70;;;;;;5007287;28;20061;-92
2020/12/12 14:51:30;;;;;;;6.13;1.70;;;31.70;67.40;;;;;;5008373;28;20257;-92
2020/12/12 14:53:57;;;;;;;5.05;2.80;;;32.00;65.80;;;;;;5012515;28;20109;-92
2020/12/12 14:56:24;;;;;;;1.95;1.67;;;32.00;66.50;;;;;;5009581;28;20030;-93
2020/12/12 14:58:53;;;;;;;6.82;2.35;;;31.80;65.90;;;;;;5010280;28;20190;-91
2020/12/12 15:01:21;;;;;;;2.72;1.58;;;31.30;67.90;;;;;;5010911;28;20246;-91
2020/12/12 15:03:48;;;;;;;2.58;1.30;;;31.90;68.70;;;;;;4989239;28;20035;-92
2020/12/12 15:06:15;;;;;;;9.57;1.70;;;32.20;66.90;;;;;;4991037;28;20054;-91
2020/12/12 15:08:41;;;;;;;3.63;2.03;;;31.80;66.20;;;;;;4992121;28;20085;-92
2020/12/12 15:11:08;;;;;;;3.90;1.52;;;32.10;67.50;;;;;;5008091;28;20030;-90